Terminal Aerodrome Forecast
Issued by NWS

Home | Current Version | Previous Version | Text Only | Print | Product List | Glossary On
Versions: 1 2 3 4 5 6 7 8 9 10 11 12 13 14 15 16 17 18 19
000
FTUS41 KBGM 181700
TAFRME
TAF
KRME 181725Z 1818/1918 12010KT P6SM BKN200
     FM190000 19005KT P6SM BKN100
     FM190400 27006KT P6SM OVC050
      TEMPO 1904/1907 -SHRA
     FM191400 30010KT P6SM SCT035=

USA.gov is the U.S. government's official web portal to all federal, state and local government web resources and services.